createdAt,value
2022-12-07T00:00:00.787Z,99740
2022-12-07T00:01:10.598Z,99740
2022-12-07T00:02:00.263Z,99740
2022-12-07T00:03:00.301Z,99740
2022-12-07T00:04:02.406Z,99740
2022-12-07T00:05:00.215Z,99740
2022-12-07T00:06:01.056Z,99740
2022-12-07T00:07:00.225Z,99740
2022-12-07T00:08:00.267Z,99740
2022-12-07T00:09:00.908Z,99740
2022-12-07T00:10:00.525Z,99740
2022-12-07T00:11:00.962Z,99730
2022-12-07T00:12:00.218Z,99740
2022-12-07T00:13:00.481Z,99730
2022-12-07T00:14:03.255Z,99730
2022-12-07T00:15:00.252Z,99730
2022-12-07T00:16:05.860Z,99730
2022-12-07T00:17:00.289Z,99730
2022-12-07T00:18:00.208Z,99720
2022-12-07T00:19:00.616Z,99720
2022-12-07T00:20:00.642Z,99720
2022-12-07T00:21:02.050Z,99720
2022-12-07T00:22:00.219Z,99720
2022-12-07T00:23:00.238Z,99720
2022-12-07T00:24:01.410Z,99720
2022-12-07T00:25:00.243Z,99720
2022-12-07T00:26:07.310Z,99720
2022-12-07T00:27:00.204Z,99720
2022-12-07T00:28:00.243Z,99710
2022-12-07T00:29:04.882Z,99710
2022-12-07T00:30:00.689Z,99710
2022-12-07T00:31:01.665Z,99710
2022-12-07T00:32:00.300Z,99710
2022-12-07T00:33:00.223Z,99710
2022-12-07T00:34:00.479Z,99710
2022-12-07T00:35:00.347Z,99710
2022-12-07T00:36:03.208Z,99710
2022-12-07T00:37:00.231Z,99710
2022-12-07T00:38:00.252Z,99710
2022-12-07T00:39:00.836Z,99710
2022-12-07T00:40:00.604Z,99710
2022-12-07T00:41:03.405Z,99710
2022-12-07T00:42:00.213Z,99710
2022-12-07T00:43:00.218Z,99710
2022-12-07T00:44:00.237Z,99710
2022-12-07T00:45:00.214Z,99710
2022-12-07T00:46:00.434Z,99700
2022-12-07T00:47:00.209Z,99710
2022-12-07T00:48:00.216Z,99710
2022-12-07T00:49:00.379Z,99700
2022-12-07T00:50:00.403Z,99710
2022-12-07T00:51:00.455Z,99710
2022-12-07T00:52:00.234Z,99710
2022-12-07T00:53:00.193Z,99710
2022-12-07T00:54:00.214Z,99710
2022-12-07T00:55:00.255Z,99710
2022-12-07T00:56:09.041Z,99710
2022-12-07T00:57:00.299Z,99700
2022-12-07T00:58:00.313Z,99710
2022-12-07T00:59:01.668Z,99710
2022-12-07T01:00:00.676Z,99710
2022-12-07T01:01:01.042Z,99710
2022-12-07T01:02:00.388Z,99710
2022-12-07T01:03:00.295Z,99710
2022-12-07T01:04:00.764Z,99710
2022-12-07T01:05:00.319Z,99710
2022-12-07T01:06:00.768Z,99710
2022-12-07T01:07:00.270Z,99710
2022-12-07T01:08:00.642Z,99710
2022-12-07T01:09:00.652Z,99710
2022-12-07T01:10:00.669Z,99710
2022-12-07T01:11:04.953Z,99710
2022-12-07T01:12:00.244Z,99720
2022-12-07T01:13:00.250Z,99710
2022-12-07T01:14:00.769Z,99710
2022-12-07T01:15:00.380Z,99710
2022-12-07T01:16:02.960Z,99710
2022-12-07T01:17:00.311Z,99710
2022-12-07T01:18:00.212Z,99710
2022-12-07T01:19:01.355Z,99710
2022-12-07T01:20:01.190Z,99710
2022-12-07T01:21:04.091Z,99710
2022-12-07T01:22:00.235Z,99710
2022-12-07T01:23:00.419Z,99710
2022-12-07T01:24:00.739Z,99700
2022-12-07T01:25:00.240Z,99700
2022-12-07T01:26:02.717Z,99700
2022-12-07T01:27:00.199Z,99700
2022-12-07T01:28:00.237Z,99700
2022-12-07T01:29:00.253Z,99700
2022-12-07T01:30:01.488Z,99700
2022-12-07T01:31:03.179Z,99700
2022-12-07T01:32:00.205Z,99700
2022-12-07T01:33:00.222Z,99700
2022-12-07T01:34:00.548Z,99700
2022-12-07T01:35:00.258Z,99700
2022-12-07T01:36:05.814Z,99700
2022-12-07T01:37:00.251Z,99700
2022-12-07T01:38:00.212Z,99700
2022-12-07T01:39:03.535Z,99700
2022-12-07T01:40:00.580Z,99700
2022-12-07T01:41:01.556Z,99700
2022-12-07T01:42:00.251Z,99700
2022-12-07T01:43:00.196Z,99710
2022-12-07T01:44:17.534Z,99700
2022-12-07T01:45:20.113Z,99690
2022-12-07T01:46:03.660Z,99710
2022-12-07T01:47:03.811Z,99700
2022-12-07T01:48:00.325Z,99700
2022-12-07T01:49:01.233Z,99700
2022-12-07T01:50:00.800Z,99700
2022-12-07T01:51:05.123Z,99700
2022-12-07T01:52:13.320Z,99700
2022-12-07T01:53:04.767Z,99700
2022-12-07T01:54:00.907Z,99700
2022-12-07T01:55:06.025Z,99700
2022-12-07T01:56:00.369Z,99700
2022-12-07T01:57:00.976Z,99700
2022-12-07T01:58:00.273Z,99700
2022-12-07T01:59:00.904Z,99700
2022-12-07T02:00:01.071Z,99690
2022-12-07T02:01:00.401Z,99700
2022-12-07T02:02:03.580Z,99700
2022-12-07T02:03:07.279Z,99700
2022-12-07T02:04:00.888Z,99700
2022-12-07T02:05:03.098Z,99700
2022-12-07T02:06:00.403Z,99700
2022-12-07T02:07:00.431Z,99700
2022-12-07T02:08:00.801Z,99700
2022-12-07T02:09:00.203Z,99700
2022-12-07T02:10:12.125Z,99700
2022-12-07T02:11:03.479Z,99710
2022-12-07T02:12:00.566Z,99710
2022-12-07T02:13:06.076Z,99700
2022-12-07T02:14:00.374Z,99700
2022-12-07T02:15:00.288Z,99700
2022-12-07T02:16:20.174Z,99710
2022-12-07T02:17:10.974Z,99710
2022-12-07T02:18:13.379Z,99710
2022-12-07T02:19:10.783Z,99710
2022-12-07T02:20:11.232Z,99700
2022-12-07T02:21:07.145Z,99700
2022-12-07T02:22:18.239Z,99710
2022-12-07T02:23:20.151Z,99700
2022-12-07T02:24:11.196Z,99700
2022-12-07T02:25:20.131Z,99710
2022-12-07T02:26:20.136Z,99700
2022-12-07T02:27:20.140Z,99700
2022-12-07T02:28:20.128Z,99700
2022-12-07T02:29:13.603Z,99710
2022-12-07T02:30:05.137Z,99700
2022-12-07T02:31:12.907Z,99710
2022-12-07T02:32:20.115Z,99710
2022-12-07T02:33:05.940Z,99710
2022-12-07T02:34:07.747Z,99710
2022-12-07T02:35:14.451Z,99710
2022-12-07T02:36:07.485Z,99710
2022-12-07T02:37:09.513Z,99710
2022-12-07T02:38:10.173Z,99710
2022-12-07T02:39:09.023Z,99710
2022-12-07T02:40:08.125Z,99710
2022-12-07T02:41:13.244Z,99700
2022-12-07T02:42:09.837Z,99700
2022-12-07T02:43:07.628Z,99710
2022-12-07T02:44:07.077Z,99700
2022-12-07T02:45:01.205Z,99700
2022-12-07T02:46:07.043Z,99700
2022-12-07T02:47:06.852Z,99700
2022-12-07T02:48:00.728Z,99700
2022-12-07T02:49:00.791Z,99700
2022-12-07T02:50:03.343Z,99690
2022-12-07T02:51:00.454Z,99700
2022-12-07T02:52:00.246Z,99700
2022-12-07T02:53:00.439Z,99700
2022-12-07T02:54:00.912Z,99690
2022-12-07T02:55:00.798Z,99700
2022-12-07T02:56:06.119Z,99700
2022-12-07T02:57:11.636Z,99690
2022-12-07T02:58:13.393Z,99690
2022-12-07T02:59:20.129Z,99700
2022-12-07T03:00:11.086Z,99700
2022-12-07T03:01:20.167Z,99690
2022-12-07T03:02:18.597Z,99690
2022-12-07T03:03:07.278Z,99690
2022-12-07T03:04:11.148Z,99700
2022-12-07T03:05:20.125Z,99690
2022-12-07T03:06:16.266Z,99690
2022-12-07T03:07:08.937Z,99700
2022-12-07T03:08:20.204Z,99700
2022-12-07T03:09:13.620Z,99700
2022-12-07T03:10:07.572Z,99690
2022-12-07T03:11:06.533Z,99690
2022-12-07T03:12:09.926Z,99690
2022-12-07T03:13:02.266Z,99690
2022-12-07T03:14:12.044Z,99690
2022-12-07T03:15:05.900Z,99690
2022-12-07T03:16:14.171Z,99690
2022-12-07T03:17:18.189Z,99690
2022-12-07T03:18:03.428Z,99690
2022-12-07T03:19:06.528Z,99690
2022-12-07T03:20:04.268Z,99690
2022-12-07T03:21:04.875Z,99690
2022-12-07T03:22:03.602Z,99690
2022-12-07T03:23:00.357Z,99690
2022-12-07T03:24:06.311Z,99690
2022-12-07T03:25:05.204Z,99690
2022-12-07T03:26:01.259Z,99690
2022-12-07T03:27:20.109Z,99690
2022-12-07T03:28:05.784Z,99690
2022-12-07T03:29:06.475Z,99690
2022-12-07T03:30:12.638Z,99690
2022-12-07T03:31:06.675Z,99690
2022-12-07T03:32:08.332Z,99690
2022-12-07T03:33:07.189Z,99690
2022-12-07T03:34:03.478Z,99690
2022-12-07T03:35:07.176Z,99690
2022-12-07T03:36:07.186Z,99680
2022-12-07T03:37:07.272Z,99680
2022-12-07T03:38:06.734Z,99680
2022-12-07T03:39:12.831Z,99680
2022-12-07T03:40:11.179Z,99680
2022-12-07T03:41:06.433Z,99680
2022-12-07T03:42:02.477Z,99670
2022-12-07T03:43:01.601Z,99670
2022-12-07T03:44:00.860Z,99670
2022-12-07T03:45:02.749Z,99670
2022-12-07T03:46:19.780Z,99670
2022-12-07T03:47:05.782Z,99670
2022-12-07T03:48:08.805Z,99670
2022-12-07T03:49:18.536Z,99670
2022-12-07T03:50:20.138Z,99660
2022-12-07T03:51:08.663Z,99660
2022-12-07T03:52:13.448Z,99660
2022-12-07T03:53:08.680Z,99660
2022-12-07T03:54:08.535Z,99660
2022-12-07T03:55:14.700Z,99660
2022-12-07T03:56:02.075Z,99660
2022-12-07T03:57:01.485Z,99660
2022-12-07T03:58:06.137Z,99660
2022-12-07T03:59:00.364Z,99670
2022-12-07T04:00:01.578Z,99660
2022-12-07T04:01:00.299Z,99660
2022-12-07T04:02:04.590Z,99670
2022-12-07T04:03:00.331Z,99660
2022-12-07T04:04:00.210Z,99660
2022-12-07T04:05:01.474Z,99660
2022-12-07T04:06:00.544Z,99660
2022-12-07T04:07:00.357Z,99660
2022-12-07T04:08:00.372Z,99670
2022-12-07T04:09:00.223Z,99660
2022-12-07T04:10:00.826Z,99660
2022-12-07T04:11:00.840Z,99660
2022-12-07T04:12:00.327Z,99670
2022-12-07T04:13:00.346Z,99660
2022-12-07T04:14:00.343Z,99660
2022-12-07T04:15:00.287Z,99660
2022-12-07T04:16:00.427Z,99660
2022-12-07T04:17:00.208Z,99660
2022-12-07T04:18:00.222Z,99660
2022-12-07T04:19:00.342Z,99670
2022-12-07T04:20:01.033Z,99670
2022-12-07T04:21:00.211Z,99670
2022-12-07T04:22:02.084Z,99670
2022-12-07T04:23:00.220Z,99670
2022-12-07T04:24:00.226Z,99670
2022-12-07T04:25:00.315Z,99670
2022-12-07T04:26:00.248Z,99670
2022-12-07T04:27:00.365Z,99670
2022-12-07T04:28:00.229Z,99670
2022-12-07T04:29:04.775Z,99670
2022-12-07T04:30:00.891Z,99670
2022-12-07T04:31:00.307Z,99670
2022-12-07T04:32:00.250Z,99670
2022-12-07T04:33:00.195Z,99670
2022-12-07T04:34:00.239Z,99670
2022-12-07T04:35:00.243Z,99670
2022-12-07T04:36:00.205Z,99660
2022-12-07T04:37:00.277Z,99660
2022-12-07T04:38:00.212Z,99670
2022-12-07T04:39:00.822Z,99660
2022-12-07T04:40:00.788Z,99660
2022-12-07T04:41:05.808Z,99660
2022-12-07T04:42:01.294Z,99660
2022-12-07T04:43:00.262Z,99660
2022-12-07T04:44:02.944Z,99660
2022-12-07T04:45:00.239Z,99670
2022-12-07T04:46:00.304Z,99660
2022-12-07T04:47:00.314Z,99660
2022-12-07T04:48:00.227Z,99660
2022-12-07T04:49:00.239Z,99660
2022-12-07T04:50:00.852Z,99660
2022-12-07T04:51:00.199Z,99660
2022-12-07T04:52:00.241Z,99660
2022-12-07T04:53:00.214Z,99660
2022-12-07T04:54:00.222Z,99660
2022-12-07T04:55:00.215Z,99660
2022-12-07T04:56:00.232Z,99660
2022-12-07T04:57:00.311Z,99660
2022-12-07T04:58:00.244Z,99660
2022-12-07T04:59:00.826Z,99660
2022-12-07T05:00:00.799Z,99660
2022-12-07T05:01:00.446Z,99660
2022-12-07T05:02:00.321Z,99660
2022-12-07T05:03:00.282Z,99660
2022-12-07T05:04:00.817Z,99660
2022-12-07T05:05:00.239Z,99660
2022-12-07T05:06:00.226Z,99660
2022-12-07T05:07:00.206Z,99660
2022-12-07T05:08:00.268Z,99660
2022-12-07T05:09:00.767Z,99650
2022-12-07T05:10:00.700Z,99650
2022-12-07T05:11:01.329Z,99660
2022-12-07T05:12:00.215Z,99660
2022-12-07T05:13:00.245Z,99660
2022-12-07T05:14:01.953Z,99650
2022-12-07T05:15:00.290Z,99650
2022-12-07T05:16:00.425Z,99650
2022-12-07T05:17:00.233Z,99650
2022-12-07T05:18:00.217Z,99660
2022-12-07T05:19:00.274Z,99660
2022-12-07T05:20:00.886Z,99650
2022-12-07T05:21:00.236Z,99650
2022-12-07T05:22:00.246Z,99660
2022-12-07T05:23:00.302Z,99660
2022-12-07T05:24:00.825Z,99660
2022-12-07T05:25:00.294Z,99660
2022-12-07T05:26:00.234Z,99650
2022-12-07T05:27:00.274Z,99660
2022-12-07T05:28:00.302Z,99660
2022-12-07T05:29:00.261Z,99660
2022-12-07T05:30:00.616Z,99660
2022-12-07T05:31:00.227Z,99650
2022-12-07T05:32:00.287Z,99650
2022-12-07T05:33:00.472Z,99650
2022-12-07T05:34:00.244Z,99650
2022-12-07T05:35:00.280Z,99660
2022-12-07T05:36:00.233Z,99660
2022-12-07T05:37:00.222Z,99660
2022-12-07T05:38:00.208Z,99660
2022-12-07T05:39:00.220Z,99660
2022-12-07T05:40:00.619Z,99660
2022-12-07T05:41:01.059Z,99660
2022-12-07T05:42:00.230Z,99660
2022-12-07T05:43:04.605Z,99660
2022-12-07T05:44:00.586Z,99660
2022-12-07T05:45:00.289Z,99650
2022-12-07T05:46:00.405Z,99650
2022-12-07T05:47:00.268Z,99650
2022-12-07T05:48:00.215Z,99660
2022-12-07T05:49:00.974Z,99660
2022-12-07T05:50:00.693Z,99650
2022-12-07T05:51:00.218Z,99660
2022-12-07T05:52:00.571Z,99660
2022-12-07T05:53:00.327Z,99660
2022-12-07T05:54:00.210Z,99660
2022-12-07T05:55:00.224Z,99660
2022-12-07T05:56:00.226Z,99660
2022-12-07T05:57:00.204Z,99660
2022-12-07T05:58:00.242Z,99660
2022-12-07T05:59:00.402Z,99660
2022-12-07T06:00:00.805Z,99650
2022-12-07T06:01:00.247Z,99660
2022-12-07T06:02:02.928Z,99660
2022-12-07T06:03:00.456Z,99660
2022-12-07T06:04:00.213Z,99660
2022-12-07T06:05:00.225Z,99660
2022-12-07T06:06:00.308Z,99660
2022-12-07T06:07:00.400Z,99660
2022-12-07T06:08:05.631Z,99650
2022-12-07T06:09:00.682Z,99650
2022-12-07T06:10:00.756Z,99660
2022-12-07T06:11:00.238Z,99660
2022-12-07T06:12:00.391Z,99660
2022-12-07T06:13:00.244Z,99660
2022-12-07T06:14:00.398Z,99660
2022-12-07T06:15:00.774Z,99660
2022-12-07T06:16:00.353Z,99660
2022-12-07T06:17:00.691Z,99660
2022-12-07T06:18:00.234Z,99650
2022-12-07T06:19:00.226Z,99650
2022-12-07T06:20:00.791Z,99650
2022-12-07T06:21:00.221Z,99650
2022-12-07T06:22:02.199Z,99650
2022-12-07T06:23:00.204Z,99650
2022-12-07T06:24:00.229Z,99650
2022-12-07T06:25:04.672Z,99650
2022-12-07T06:26:00.265Z,99650
2022-12-07T06:27:00.248Z,99650
2022-12-07T06:28:00.246Z,99650
2022-12-07T06:29:00.257Z,99650
2022-12-07T06:30:00.808Z,99650
2022-12-07T06:31:01.486Z,99650
2022-12-07T06:32:00.363Z,99650
2022-12-07T06:33:00.221Z,99640
2022-12-07T06:34:02.049Z,99650
2022-12-07T06:35:00.266Z,99650
2022-12-07T06:36:00.229Z,99650
2022-12-07T06:37:00.387Z,99650
2022-12-07T06:38:00.216Z,99650
2022-12-07T06:39:00.404Z,99650
2022-12-07T06:40:00.914Z,99650
2022-12-07T06:41:00.237Z,99660
2022-12-07T06:42:00.232Z,99660
2022-12-07T06:43:00.234Z,99660
2022-12-07T06:44:00.254Z,99660
2022-12-07T06:45:00.229Z,99650
2022-12-07T06:46:00.340Z,99650
2022-12-07T06:47:31.777Z,99650
2022-12-07T06:48:00.578Z,99650
2022-12-07T06:49:00.246Z,99650
2022-12-07T06:50:00.587Z,99650
2022-12-07T06:51:00.286Z,99650
2022-12-07T06:52:00.193Z,99650
2022-12-07T06:53:00.281Z,99660
2022-12-07T06:54:00.267Z,99660
2022-12-07T06:55:00.234Z,99660
2022-12-07T06:56:00.486Z,99660
2022-12-07T06:57:00.249Z,99660
2022-12-07T06:58:00.249Z,99660
2022-12-07T06:59:00.251Z,99660
2022-12-07T07:00:01.013Z,99660
2022-12-07T07:01:00.336Z,99660
2022-12-07T07:02:00.313Z,99660
2022-12-07T07:03:00.657Z,99660
2022-12-07T07:04:00.543Z,99660
2022-12-07T07:05:00.285Z,99670
2022-12-07T07:06:00.293Z,99660
2022-12-07T07:07:00.544Z,99660
2022-12-07T07:08:22.234Z,99660
2022-12-07T07:09:00.440Z,99660
2022-12-07T07:10:00.565Z,99660
2022-12-07T07:11:00.602Z,99660
2022-12-07T07:12:00.250Z,99660
2022-12-07T07:13:00.230Z,99660
2022-12-07T07:14:00.243Z,99650
2022-12-07T07:15:00.240Z,99650
2022-12-07T07:16:00.994Z,99650
2022-12-07T07:17:00.291Z,99650
2022-12-07T07:18:07.431Z,99650
2022-12-07T07:19:00.255Z,99650
2022-12-07T07:20:00.751Z,99650
2022-12-07T07:21:00.439Z,99640
2022-12-07T07:22:00.260Z,99650
2022-12-07T07:23:00.265Z,99650
2022-12-07T07:24:00.223Z,99640
2022-12-07T07:25:00.278Z,99650
2022-12-07T07:26:00.262Z,99650
2022-12-07T07:27:00.240Z,99640
2022-12-07T07:28:00.340Z,99640
2022-12-07T07:29:00.213Z,99640
2022-12-07T07:30:00.781Z,99640
2022-12-07T07:31:00.286Z,99640
2022-12-07T07:32:06.277Z,99640
2022-12-07T07:33:01.728Z,99640
2022-12-07T07:34:00.204Z,99640
2022-12-07T07:35:00.577Z,99650
2022-12-07T07:36:00.226Z,99640
2022-12-07T07:37:00.564Z,99640
2022-12-07T07:38:01.102Z,99650
2022-12-07T07:39:00.255Z,99640
2022-12-07T07:40:00.844Z,99650
2022-12-07T07:41:00.237Z,99640
2022-12-07T07:42:00.218Z,99640
2022-12-07T07:43:00.325Z,99650
2022-12-07T07:44:00.203Z,99650
2022-12-07T07:45:00.301Z,99650
2022-12-07T07:46:00.334Z,99650
2022-12-07T07:47:00.474Z,99650
2022-12-07T07:48:00.225Z,99650
2022-12-07T07:49:00.299Z,99650
2022-12-07T07:50:00.663Z,99650
2022-12-07T07:51:00.220Z,99650
2022-12-07T07:52:00.261Z,99640
2022-12-07T07:53:00.330Z,99640
2022-12-07T07:54:00.213Z,99650
2022-12-07T07:55:00.337Z,99640
2022-12-07T07:56:00.259Z,99650
2022-12-07T07:57:00.202Z,99640
2022-12-07T07:58:00.785Z,99640
2022-12-07T07:59:00.210Z,99650
2022-12-07T08:00:00.737Z,99650
2022-12-07T08:01:04.782Z,99640
2022-12-07T08:02:00.287Z,99640
2022-12-07T08:03:00.210Z,99640
2022-12-07T08:04:00.872Z,99640
2022-12-07T08:05:00.353Z,99640
2022-12-07T08:06:02.758Z,99640
2022-12-07T08:07:00.206Z,99640
2022-12-07T08:08:00.263Z,99640
2022-12-07T08:09:00.182Z,99650
2022-12-07T08:10:01.215Z,99650
2022-12-07T08:11:00.208Z,99650
2022-12-07T08:12:00.198Z,99650
2022-12-07T08:13:00.220Z,99650
2022-12-07T08:14:00.468Z,99650
2022-12-07T08:15:00.201Z,99660
2022-12-07T08:16:04.795Z,99660
2022-12-07T08:17:00.361Z,99650
2022-12-07T08:18:00.197Z,99660
2022-12-07T08:19:00.205Z,99660
2022-12-07T08:20:00.597Z,99660
2022-12-07T08:21:00.471Z,99660
2022-12-07T08:22:00.173Z,99660
2022-12-07T08:23:00.723Z,99660
2022-12-07T08:24:00.270Z,99660
2022-12-07T08:25:00.186Z,99660
2022-12-07T08:26:01.238Z,99660
2022-12-07T08:27:00.203Z,99650
2022-12-07T08:28:00.795Z,99650
2022-12-07T08:29:00.167Z,99650
2022-12-07T08:30:00.771Z,99650
2022-12-07T08:31:01.984Z,99650
2022-12-07T08:32:01.008Z,99650
2022-12-07T08:33:00.173Z,99650
2022-12-07T08:34:00.254Z,99650
2022-12-07T08:35:00.172Z,99650
2022-12-07T08:36:02.167Z,99640
2022-12-07T08:37:00.580Z,99650
2022-12-07T08:38:00.360Z,99640
2022-12-07T08:39:31.845Z,99650
2022-12-07T08:40:00.418Z,99640
2022-12-07T08:41:00.344Z,99650
2022-12-07T08:42:00.261Z,99640
2022-12-07T08:43:00.202Z,99640
2022-12-07T08:44:00.231Z,99640
2022-12-07T08:45:00.209Z,99640
2022-12-07T08:46:13.192Z,99640
2022-12-07T08:47:04.265Z,99630
2022-12-07T08:48:06.518Z,99630
2022-12-07T08:49:12.899Z,99630
2022-12-07T08:50:01.818Z,99630
2022-12-07T08:51:02.316Z,99640
2022-12-07T08:52:01.576Z,99630
2022-12-07T08:53:01.171Z,99630
2022-12-07T08:54:03.820Z,99630
2022-12-07T08:55:00.791Z,99630
2022-12-07T08:56:00.380Z,99630
2022-12-07T08:57:00.338Z,99630
2022-12-07T08:58:01.916Z,99630
2022-12-07T08:59:00.455Z,99630
2022-12-07T09:00:00.625Z,99620
2022-12-07T09:01:00.201Z,99630
2022-12-07T09:02:00.322Z,99620
2022-12-07T09:03:00.229Z,99620
2022-12-07T09:04:00.240Z,99620
2022-12-07T09:05:00.269Z,99620
2022-12-07T09:06:00.734Z,99620
2022-12-07T09:07:00.329Z,99620
2022-12-07T09:08:01.598Z,99610
2022-12-07T09:09:01.406Z,99620
2022-12-07T09:10:00.935Z,99620
2022-12-07T09:11:00.670Z,99620
2022-12-07T09:12:00.208Z,99620
2022-12-07T09:13:00.231Z,99620
2022-12-07T09:14:00.283Z,99610
2022-12-07T09:15:00.263Z,99610
2022-12-07T09:16:00.269Z,99610
2022-12-07T09:17:09.096Z,99610
2022-12-07T09:18:00.352Z,99610
2022-12-07T09:19:00.229Z,99600
2022-12-07T09:20:01.039Z,99610
2022-12-07T09:21:00.229Z,99600
2022-12-07T09:22:00.351Z,99600
2022-12-07T09:23:00.206Z,99600
2022-12-07T09:24:00.249Z,99600
2022-12-07T09:25:01.656Z,99600
2022-12-07T09:26:03.796Z,99600
2022-12-07T09:27:00.431Z,99600
2022-12-07T09:28:00.490Z,99600
2022-12-07T09:29:00.298Z,99590
2022-12-07T09:30:00.763Z,99590
2022-12-07T09:31:22.644Z,99590
2022-12-07T09:32:00.356Z,99590
2022-12-07T09:33:00.524Z,99590
2022-12-07T09:34:00.764Z,99580
2022-12-07T09:35:00.424Z,99590
2022-12-07T09:36:00.210Z,99580
2022-12-07T09:37:00.767Z,99580
2022-12-07T09:38:00.217Z,99580
2022-12-07T09:39:00.343Z,99580
2022-12-07T09:40:00.355Z,99570
2022-12-07T09:41:05.552Z,99580
2022-12-07T09:42:03.788Z,99570
2022-12-07T09:43:00.343Z,99570
2022-12-07T09:44:06.231Z,99570
2022-12-07T09:45:01.996Z,99570
2022-12-07T09:46:00.402Z,99570
2022-12-07T09:47:01.211Z,99570
2022-12-07T09:48:00.713Z,99570
2022-12-07T09:49:00.234Z,99570
2022-12-07T09:50:05.488Z,99560
2022-12-07T09:51:01.144Z,99560
2022-12-07T09:52:09.288Z,99560
2022-12-07T09:53:09.764Z,99560
2022-12-07T09:54:00.289Z,99560
2022-12-07T09:55:00.793Z,99560
2022-12-07T09:56:01.956Z,99560
2022-12-07T09:57:00.188Z,99560
2022-12-07T09:58:00.182Z,99560
2022-12-07T09:59:02.887Z,99560
2022-12-07T10:00:06.643Z,99560
2022-12-07T10:01:09.690Z,99550
2022-12-07T10:02:20.183Z,99550
2022-12-07T10:03:02.098Z,99550
2022-12-07T10:04:09.609Z,99550
2022-12-07T10:05:01.322Z,99550
2022-12-07T10:06:00.278Z,99550
2022-12-07T10:07:00.146Z,99540
2022-12-07T10:08:00.325Z,99550
2022-12-07T10:09:00.152Z,99550
2022-12-07T10:10:03.605Z,99540
2022-12-07T10:11:02.547Z,99540
2022-12-07T10:12:08.490Z,99530
2022-12-07T10:13:03.258Z,99540
2022-12-07T10:14:11.871Z,99530
2022-12-07T10:15:07.587Z,99530
2022-12-07T10:16:06.580Z,99530
2022-12-07T10:17:00.970Z,99530
2022-12-07T10:18:00.255Z,99530
2022-12-07T10:19:19.946Z,99520
2022-12-07T10:20:19.561Z,99520
2022-12-07T10:21:10.890Z,99510
2022-12-07T10:22:05.223Z,99520
2022-12-07T10:23:04.588Z,99510
2022-12-07T10:24:00.178Z,99520
2022-12-07T10:25:08.803Z,99520
2022-12-07T10:26:20.130Z,99520
2022-12-07T10:27:00.439Z,99520
2022-12-07T10:28:07.661Z,99520
2022-12-07T10:29:20.123Z,99510
2022-12-07T10:30:07.396Z,99520
2022-12-07T10:31:12.373Z,99520
2022-12-07T10:32:02.701Z,99520
2022-12-07T10:33:00.215Z,99520
2022-12-07T10:34:01.125Z,99520
2022-12-07T10:35:20.143Z,99520
2022-12-07T10:36:11.083Z,99520
2022-12-07T10:37:13.441Z,99520
2022-12-07T10:38:00.224Z,99520
2022-12-07T10:39:03.642Z,99520
2022-12-07T10:40:00.263Z,99520
2022-12-07T10:41:05.514Z,99520
2022-12-07T10:42:02.402Z,99520
2022-12-07T10:43:03.337Z,99520
2022-12-07T10:44:00.260Z,99520
2022-12-07T10:45:18.044Z,99520
2022-12-07T10:46:15.044Z,99530
2022-12-07T10:47:20.176Z,99520
2022-12-07T10:48:13.472Z,99520
2022-12-07T10:49:20.143Z,99520
2022-12-07T10:50:11.085Z,99520
2022-12-07T10:51:20.161Z,99520
2022-12-07T10:52:13.914Z,99530
2022-12-07T10:53:17.523Z,99520
2022-12-07T10:54:12.242Z,99530
2022-12-07T10:55:13.336Z,99530
2022-12-07T10:56:11.201Z,99530
2022-12-07T10:57:13.462Z,99530
2022-12-07T10:58:08.634Z,99520
2022-12-07T10:59:20.167Z,99520
2022-12-07T11:00:15.719Z,99530
2022-12-07T11:01:11.015Z,99530
2022-12-07T11:02:22.643Z,99530
2022-12-07T11:03:20.160Z,99530
2022-12-07T11:04:10.179Z,99530
2022-12-07T11:05:07.745Z,99520
2022-12-07T11:06:17.584Z,99530
2022-12-07T11:07:20.120Z,99530
2022-12-07T11:08:11.225Z,99520
2022-12-07T11:09:04.488Z,99520
2022-12-07T11:10:10.022Z,99530
2022-12-07T11:11:08.181Z,99530
2022-12-07T11:12:11.761Z,99530
2022-12-07T11:13:25.129Z,99520
2022-12-07T11:14:19.590Z,99530
2022-12-07T11:15:15.308Z,99520
2022-12-07T11:16:08.780Z,99520
2022-12-07T11:17:07.537Z,99520
2022-12-07T11:18:19.296Z,99510
2022-12-07T11:19:22.748Z,99520
2022-12-07T11:20:05.105Z,99520
2022-12-07T11:21:20.142Z,99520
2022-12-07T11:22:08.980Z,99520
2022-12-07T11:23:10.173Z,99510
2022-12-07T11:24:10.160Z,99510
2022-12-07T11:25:17.669Z,99520
2022-12-07T11:26:13.453Z,99510
2022-12-07T11:27:14.534Z,99520
2022-12-07T11:28:11.140Z,99510
2022-12-07T11:29:20.071Z,99510
2022-12-07T11:30:12.441Z,99510
2022-12-07T11:31:11.212Z,99510
2022-12-07T11:32:17.247Z,99510
2022-12-07T11:33:03.413Z,99500
2022-12-07T11:34:09.503Z,99510
2022-12-07T11:35:10.840Z,99500
2022-12-07T11:36:14.290Z,99500
2022-12-07T11:37:03.389Z,99500
2022-12-07T11:38:20.980Z,99500
2022-12-07T11:39:04.644Z,99500
2022-12-07T11:40:05.578Z,99500
2022-12-07T11:41:03.675Z,99500
2022-12-07T11:42:06.272Z,99490
2022-12-07T11:43:05.670Z,99500
2022-12-07T11:44:25.688Z,99500
2022-12-07T11:45:02.294Z,99500
2022-12-07T11:46:05.572Z,99500
2022-12-07T11:47:08.961Z,99500
2022-12-07T11:48:06.137Z,99510
2022-12-07T11:49:12.446Z,99510
2022-12-07T11:50:20.511Z,99500
2022-12-07T11:51:02.154Z,99500
2022-12-07T11:52:03.951Z,99500
2022-12-07T11:53:05.517Z,99500
2022-12-07T11:54:14.145Z,99500
2022-12-07T11:55:02.256Z,99500
2022-12-07T11:56:11.045Z,99500
2022-12-07T11:57:04.207Z,99500
2022-12-07T11:58:11.839Z,99500
2022-12-07T11:59:11.151Z,99500
2022-12-07T12:00:06.047Z,99500
2022-12-07T12:01:09.857Z,99500
2022-12-07T12:02:15.259Z,99500
2022-12-07T12:03:09.405Z,99500
2022-12-07T12:04:10.083Z,99500
2022-12-07T12:05:07.577Z,99500
2022-12-07T12:06:00.194Z,99500
2022-12-07T12:10:06.971Z,99500
2022-12-07T12:11:10.135Z,99500
2022-12-07T12:14:34.774Z,99500
2022-12-07T12:15:20.105Z,99500
2022-12-07T12:16:11.206Z,99500
2022-12-07T12:17:20.102Z,99490
2022-12-07T12:18:20.122Z,99490
2022-12-07T12:19:00.205Z,99490
2022-12-07T12:20:00.236Z,99490
2022-12-07T12:21:10.740Z,99490
2022-12-07T12:22:09.607Z,99490
2022-12-07T12:23:09.383Z,99490
2022-12-07T12:24:10.036Z,99490
2022-12-07T12:25:06.571Z,99490
2022-12-07T12:26:03.533Z,99490
2022-12-07T12:27:08.208Z,99490
2022-12-07T12:28:00.571Z,99500
2022-12-07T12:29:20.137Z,99500
2022-12-07T12:30:04.291Z,99490
2022-12-07T12:31:14.948Z,99500
2022-12-07T12:32:13.528Z,99500
2022-12-07T12:33:03.863Z,99490
2022-12-07T12:34:03.893Z,99490
2022-12-07T12:35:12.602Z,99490
2022-12-07T12:36:20.210Z,99490
2022-12-07T12:37:00.504Z,99480
2022-12-07T12:38:20.121Z,99490
2022-12-07T12:39:10.268Z,99490
2022-12-07T12:40:17.547Z,99480
2022-12-07T12:41:01.650Z,99490
2022-12-07T12:42:00.529Z,99490
2022-12-07T12:43:00.275Z,99480
2022-12-07T12:44:00.331Z,99480
2022-12-07T12:45:11.296Z,99470
2022-12-07T12:46:20.203Z,99470
2022-12-07T12:47:02.144Z,99470
2022-12-07T12:48:03.481Z,99470
2022-12-07T12:49:20.120Z,99470
2022-12-07T12:50:12.232Z,99470
2022-12-07T12:51:20.110Z,99470
2022-12-07T12:52:13.488Z,99470
2022-12-07T12:53:11.811Z,99470
2022-12-07T12:54:04.968Z,99470
2022-12-07T12:55:10.201Z,99470
2022-12-07T12:56:20.188Z,99470
2022-12-07T12:57:04.504Z,99480